Airfield :
LOGIN :

Register | Disclaimer

   EN    FR    IT 

 










Legend :    VFR   Marginal VFR   IFR   Intensive IFR   Very Intensive IFR
Visi :
Ceiling :
>= 8 km
>= 3000ft
5 to 8 km
1000 to 3000 ft
1500m to 5 km
500 to 1000 ft
800 to 1500m
200 to 500 ft
< 800m
< 200 ft
Symbols :   Thunderstorms  Fog  Heavy snow  Heavy precipitations  Wind > 20 kt
SIGMETs :     Misc.  Thunderstorms  Icing  Turbulence  Mountain Waves  Volcanic Ashes







- Airport Elevation : 18 ft
- IATA code : AJA
- Download approach charts


LFKJ - Ajaccio

CURRENT METAR :
  • 141430Z AUTO 22003KT 5000 BR BKN028 OVC098 14/11 Q1013 NOSIG

EXPIRED METARs :
  • 141400Z AUTO 21004KT 9000 SCT027 BKN033 BKN039 15/11 Q1013 BECMG 25015KT
  • 141330Z AUTO 24004KT 9000 FEW027 BKN033 BKN074 15/11 Q1014 BECMG 25015KT
  • 141300Z AUTO 25008KT 9999 FEW024 BKN031 BKN058 15/11 Q1014 NOSIG
  • 141230Z AUTO 25007KT 9999 BKN022 BKN028 BKN036 15/11 Q1015 NOSIG
  • 141200Z AUTO 25006KT 9000 BKN024 BKN046 OVC056 15/12 Q1015 NOSIG

TAF TAF LFKJ
Valid from the 14 at 15:00 until the 15 at 15:00 UTC


141400Z 1415/1515 25005KT 9999 FEW020 BKN030 BKN070
TEMPO 1502/1509 22012KT 4000 RA BKN014 OVC040
BECMG 1507/1508 25015G25KT
ATIS : +33 4 95 23 59 85
No reported NOTAMs for that airfield.
4 SIGMETs reported for the Marseille FIR (LFMM) :
 
Severe turbulence
LFMM SIGMET 9 VALID 141430/141830 LFPW
LFMM MARSEILLE FIR/UIR SEV TURB FCST WI N4345 E00245 - N4630 E00300 - N4630 E00315 - N4415 E00415 - N4330 E00245 - N4345 E00245 SFC/FL080 STNR INTSF=
Severe turbulence
LFMM SIGMET 8 VALID 141400/141700 LFPW
LFMM MARSEILLE FIR/UIR SEV TURB FCST WI N4345 E00730 - N4315 E00945 - N4115 E00945 - N4115 E00900 - N4230 E00845 - N4330 E00700 - N4345 E00730 SFC/FL060 STNR NC=
Severe turbulence
LFMM SIGMET 7 VALID 141300/141500 LFPW
LFMM MARSEILLE FIR/UIR SEV TURB OBS AT 1300Z WI N4630 E00315 - N4630 E00530 - N4545 E00530 - N4600 E00315 - N4630 E00315 FL160/250 STNR NC=
Severe mountain waves
LFMM SIGMET 6 VALID 141300/141700 LFPW
LFMM MARSEILLE FIR/UIR SEV MTW FCST E OF E00845 SFC/FL320 STNR NC=



MET'MAP, your aeronautical weather chart ! - Copyright ORBIFLY December 2007 - Disclaimer

ORBIFLY MET'MAP TEAM :

Programming & Development : Alexandra Zaïnal
Concept & Development : Baudouin d'Aumeries
Co-Development & Prog : Marc-Olivier Méhu
Technical & hardware support : Manuel Goepfert

Contact : metmap@orbifly.com




SOURCES & CREDITS :

   NOAA